sensor_id;sensor_type;location;lat;lon;timestamp;pressure;altitude;pressure_sealevel;temperature;humidity
67740;BME280;54536;50.090;14.420;2022-10-23T00:00:49;99738.97;;;14.81;68.15
67740;BME280;54536;50.090;14.420;2022-10-23T00:03:32;99749.25;;;14.84;68.24
67740;BME280;54536;50.090;14.420;2022-10-23T00:05:58;99748.59;;;14.82;67.89
67740;BME280;54536;50.090;14.420;2022-10-23T00:08:24;99754.41;;;14.85;68.19
67740;BME280;54536;50.090;14.420;2022-10-23T00:10:51;99749.34;;;14.74;68.08
67740;BME280;54536;50.090;14.420;2022-10-23T00:13:17;99748.06;;;14.78;67.72
67740;BME280;54536;50.090;14.420;2022-10-23T00:15:43;99756.09;;;14.68;67.92
67740;BME280;54536;50.090;14.420;2022-10-23T00:18:10;99747.78;;;14.63;68.91
67740;BME280;54536;50.090;14.420;2022-10-23T00:20:35;99746.97;;;14.63;67.81
67740;BME280;54536;50.090;14.420;2022-10-23T00:23:02;99742.44;;;14.55;68.47
67740;BME280;54536;50.090;14.420;2022-10-23T00:25:28;99748.41;;;14.57;68.78
67740;BME280;54536;50.090;14.420;2022-10-23T00:27:55;99739.91;;;14.71;67.85
67740;BME280;54536;50.090;14.420;2022-10-23T00:30:21;99741.81;;;14.61;67.79
67740;BME280;54536;50.090;14.420;2022-10-23T00:32:47;99743.19;;;14.65;68.28
67740;BME280;54536;50.090;14.420;2022-10-23T00:35:14;99742.31;;;14.65;68.17
67740;BME280;54536;50.090;14.420;2022-10-23T00:37:40;99748.00;;;14.70;68.17
67740;BME280;54536;50.090;14.420;2022-10-23T00:40:07;99740.75;;;14.72;67.30
67740;BME280;54536;50.090;14.420;2022-10-23T00:42:34;99740.38;;;14.67;68.06
67740;BME280;54536;50.090;14.420;2022-10-23T00:45:13;99742.78;;;14.60;68.17
67740;BME280;54536;50.090;14.420;2022-10-23T00:47:40;99742.78;;;14.60;68.25
67740;BME280;54536;50.090;14.420;2022-10-23T00:50:07;99744.22;;;14.72;67.68
67740;BME280;54536;50.090;14.420;2022-10-23T00:52:40;99736.59;;;14.69;68.40
67740;BME280;54536;50.090;14.420;2022-10-23T00:55:07;99741.81;;;14.61;68.10
67740;BME280;54536;50.090;14.420;2022-10-23T00:57:33;99751.91;;;14.48;68.16
67740;BME280;54536;50.090;14.420;2022-10-23T01:00:00;99747.94;;;14.44;68.71
67740;BME280;54536;50.090;14.420;2022-10-23T01:02:26;99749.91;;;14.60;68.39
67740;BME280;54536;50.090;14.420;2022-10-23T01:04:52;99752.47;;;14.51;67.78
67740;BME280;54536;50.090;14.420;2022-10-23T01:07:28;99754.81;;;14.37;68.57
67740;BME280;54536;50.090;14.420;2022-10-23T01:12:46;99751.91;;;14.48;68.40
67740;BME280;54536;50.090;14.420;2022-10-23T01:18:06;99749.13;;;14.32;68.20
67740;BME280;54536;50.090;14.420;2022-10-23T01:20:43;99749.06;;;14.41;68.05
67740;BME280;54536;50.090;14.420;2022-10-23T01:28:59;99763.97;;;14.42;67.67
67740;BME280;54536;50.090;14.420;2022-10-23T01:34:07;99762.00;;;14.26;68.42
67740;BME280;54536;50.090;14.420;2022-10-23T01:36:40;99754.44;;;14.32;68.33
67740;BME280;54536;50.090;14.420;2022-10-23T01:39:14;99759.06;;;14.29;68.46
67740;BME280;54536;50.090;14.420;2022-10-23T01:41:51;99764.72;;;14.17;68.60
67740;BME280;54536;50.090;14.420;2022-10-23T01:44:35;99761.16;;;14.08;68.70
67740;BME280;54536;50.090;14.420;2022-10-23T01:47:07;99755.56;;;14.11;68.94
67740;BME280;54536;50.090;14.420;2022-10-23T01:49:37;99753.22;;;14.08;68.87
67740;BME280;54536;50.090;14.420;2022-10-23T01:52:08;99757.03;;;13.96;68.71
67740;BME280;54536;50.090;14.420;2022-10-23T01:54:40;99759.84;;;14.12;68.77
67740;BME280;54536;50.090;14.420;2022-10-23T01:57:11;99756.91;;;13.97;68.28
67740;BME280;54536;50.090;14.420;2022-10-23T01:59:43;99753.44;;;13.69;69.34
67740;BME280;54536;50.090;14.420;2022-10-23T02:02:14;99753.50;;;13.87;68.93
67740;BME280;54536;50.090;14.420;2022-10-23T02:04:50;99750.47;;;13.82;69.41
67740;BME280;54536;50.090;14.420;2022-10-23T02:07:20;99748.94;;;13.79;68.96
67740;BME280;54536;50.090;14.420;2022-10-23T02:09:47;99754.91;;;13.81;69.31
67740;BME280;54536;50.090;14.420;2022-10-23T02:20:27;99749.69;;;13.72;69.00
67740;BME280;54536;50.090;14.420;2022-10-23T02:23:03;99741.00;;;13.79;69.14
67740;BME280;54536;50.090;14.420;2022-10-23T02:25:40;99739.13;;;13.72;69.73
67740;BME280;54536;50.090;14.420;2022-10-23T02:28:17;99740.81;;;13.63;69.21
67740;BME280;54536;50.090;14.420;2022-10-23T02:30:49;99744.00;;;13.67;69.87
67740;BME280;54536;50.090;14.420;2022-10-23T02:33:17;99738.97;;;13.73;69.07
67740;BME280;54536;50.090;14.420;2022-10-23T02:35:44;99734.75;;;13.80;68.72
67740;BME280;54536;50.090;14.420;2022-10-23T02:38:37;99732.66;;;13.84;68.71
67740;BME280;54536;50.090;14.420;2022-10-23T02:53:05;99721.66;;;13.61;68.55
67740;BME280;54536;50.090;14.420;2022-10-23T03:00:54;99727.81;;;13.52;69.40
67740;BME280;54536;50.090;14.420;2022-10-23T03:03:27;99727.22;;;13.58;69.64
67740;BME280;54536;50.090;14.420;2022-10-23T03:05:56;99746.50;;;13.41;69.66
67740;BME280;54536;50.090;14.420;2022-10-23T03:08:24;99746.44;;;13.50;69.28
67740;BME280;54536;50.090;14.420;2022-10-23T03:10:50;99741.72;;;13.54;69.43
67740;BME280;54536;50.090;14.420;2022-10-23T03:13:17;99744.94;;;13.48;69.38
67740;BME280;54536;50.090;14.420;2022-10-23T03:15:43;99755.56;;;13.38;69.30
67740;BME280;54536;50.090;14.420;2022-10-23T03:18:09;99745.03;;;13.56;69.08
67740;BME280;54536;50.090;14.420;2022-10-23T03:20:35;99746.25;;;13.62;69.25
67740;BME280;54536;50.090;14.420;2022-10-23T03:23:01;99746.50;;;13.41;69.59
67740;BME280;54536;50.090;14.420;2022-10-23T03:25:28;99756.91;;;13.42;69.42
67740;BME280;54536;50.090;14.420;2022-10-23T03:27:54;99744.59;;;13.33;69.94
67740;BME280;54536;50.090;14.420;2022-10-23T03:30:20;99741.81;;;13.34;69.43
67740;BME280;54536;50.090;14.420;2022-10-23T03:32:46;99740.44;;;13.11;70.04
67740;BME280;54536;50.090;14.420;2022-10-23T03:35:13;99736.53;;;13.34;69.67
67740;BME280;54536;50.090;14.420;2022-10-23T03:37:39;99734.47;;;13.28;70.11
67740;BME280;54536;50.090;14.420;2022-10-23T03:40:06;99731.09;;;13.36;69.26
67740;BME280;54536;50.090;14.420;2022-10-23T03:42:32;99733.16;;;13.42;69.36
67740;BME280;54536;50.090;14.420;2022-10-23T03:44:58;99722.91;;;13.29;70.08
67740;BME280;54536;50.090;14.420;2022-10-23T03:47:25;99731.97;;;13.17;70.39
67740;BME280;54536;50.090;14.420;2022-10-23T03:49:51;99732.50;;;13.30;69.35
67740;BME280;54536;50.090;14.420;2022-10-23T03:52:17;99729.22;;;13.46;68.72
67740;BME280;54536;50.090;14.420;2022-10-23T03:54:44;99734.81;;;13.43;68.88
67740;BME280;54536;50.090;14.420;2022-10-23T03:57:10;99749.03;;;13.32;69.51
67740;BME280;54536;50.090;14.420;2022-10-23T03:59:37;99749.00;;;13.42;68.50
67740;BME280;54536;50.090;14.420;2022-10-23T04:02:03;99750.97;;;13.30;69.02
67740;BME280;54536;50.090;14.420;2022-10-23T04:04:29;99749.88;;;13.33;68.60
67740;BME280;54536;50.090;14.420;2022-10-23T04:06:55;99745.81;;;13.39;68.89
67740;BME280;54536;50.090;14.420;2022-10-23T04:09:21;99751.97;;;13.20;69.16
67740;BME280;54536;50.090;14.420;2022-10-23T04:11:48;99749.75;;;13.34;69.06
67740;BME280;54536;50.090;14.420;2022-10-23T04:14:14;99752.78;;;13.20;69.48
67740;BME280;54536;50.090;14.420;2022-10-23T04:16:40;99737.19;;;13.37;68.72
67740;BME280;54536;50.090;14.420;2022-10-23T04:19:07;99735.94;;;13.41;68.31
67740;BME280;54536;50.090;14.420;2022-10-23T04:21:33;99741.47;;;13.47;68.04
67740;BME280;54536;50.090;14.420;2022-10-23T04:24:00;99731.09;;;13.36;68.54
67740;BME280;54536;50.090;14.420;2022-10-23T04:26:26;99721.47;;;13.45;68.35
67740;BME280;54536;50.090;14.420;2022-10-23T04:28:52;99720.03;;;13.50;68.09
67740;BME280;54536;50.090;14.420;2022-10-23T04:31:19;99722.34;;;13.35;68.23
67740;BME280;54536;50.090;14.420;2022-10-23T04:33:46;99734.81;;;13.43;67.98
67740;BME280;54536;50.090;14.420;2022-10-23T04:36:12;99736.13;;;13.29;69.29
67740;BME280;54536;50.090;14.420;2022-10-23T04:38:38;99726.75;;;13.45;68.49
67740;BME280;54536;50.090;14.420;2022-10-23T04:41:05;99724.16;;;13.35;68.49
67740;BME280;54536;50.090;14.420;2022-10-23T04:43:31;99738.78;;;13.10;69.04
67740;BME280;54536;50.090;14.420;2022-10-23T04:45:57;99722.13;;;13.09;69.48
67740;BME280;54536;50.090;14.420;2022-10-23T04:48:24;99727.09;;;13.22;68.52
67740;BME280;54536;50.090;14.420;2022-10-23T04:50:55;99713.34;;;13.28;68.96
67740;BME280;54536;50.090;14.420;2022-10-23T04:53:22;99715.66;;;13.41;67.89
67740;BME280;54536;50.090;14.420;2022-10-23T04:55:53;99716.56;;;13.50;68.17
67740;BME280;54536;50.090;14.420;2022-10-23T04:58:21;99718.66;;;13.46;68.34
67740;BME280;54536;50.090;14.420;2022-10-23T05:00:48;99722.09;;;13.29;68.26
67740;BME280;54536;50.090;14.420;2022-10-23T05:03:15;99725.44;;;13.21;68.65
67740;BME280;54536;50.090;14.420;2022-10-23T05:05:42;99724.16;;;13.35;68.06
67740;BME280;54536;50.090;14.420;2022-10-23T05:08:10;99724.81;;;13.37;68.16
67740;BME280;54536;50.090;14.420;2022-10-23T05:10:36;99728.22;;;13.10;69.17
67740;BME280;54536;50.090;14.420;2022-10-23T05:13:03;99723.53;;;13.04;69.56
67740;BME280;54536;50.090;14.420;2022-10-23T05:15:29;99721.59;;;13.06;69.69
67740;BME280;54536;50.090;14.420;2022-10-23T05:18:10;99728.13;;;13.02;69.81
67740;BME280;54536;50.090;14.420;2022-10-23T05:20:38;99734.06;;;13.13;69.48
67740;BME280;54536;50.090;14.420;2022-10-23T05:23:08;99730.03;;;13.09;68.54
67740;BME280;54536;50.090;14.420;2022-10-23T05:25:35;99727.97;;;13.03;69.24
67740;BME280;54536;50.090;14.420;2022-10-23T05:28:02;99736.22;;;12.81;69.89
67740;BME280;54536;50.090;14.420;2022-10-23T05:30:29;99731.78;;;12.81;69.72
67740;BME280;54536;50.090;14.420;2022-10-23T05:32:56;99728.41;;;12.99;68.98
67740;BME280;54536;50.090;14.420;2022-10-23T05:35:22;99730.81;;;12.92;69.75
67740;BME280;54536;50.090;14.420;2022-10-23T05:37:50;99734.38;;;13.01;69.05
67740;BME280;54536;50.090;14.420;2022-10-23T05:40:18;99731.47;;;12.94;69.39
67740;BME280;54536;50.090;14.420;2022-10-23T05:42:44;99741.38;;;12.82;70.03
67740;BME280;54536;50.090;14.420;2022-10-23T05:45:10;99738.00;;;13.00;68.82
67740;BME280;54536;50.090;14.420;2022-10-23T05:47:37;99739.81;;;12.99;69.18
67740;BME280;54536;50.090;14.420;2022-10-23T05:50:03;99746.13;;;12.79;69.65
67740;BME280;54536;50.090;14.420;2022-10-23T05:52:29;99743.16;;;12.92;69.13
67740;BME280;54536;50.090;14.420;2022-10-23T05:54:56;99744.41;;;12.87;70.04
67740;BME280;54536;50.090;14.420;2022-10-23T05:57:22;99745.19;;;13.07;69.12
67740;BME280;54536;50.090;14.420;2022-10-23T05:59:48;99749.97;;;12.84;69.39
67740;BME280;54536;50.090;14.420;2022-10-23T06:02:14;99752.59;;;12.94;69.28
67740;BME280;54536;50.090;14.420;2022-10-23T06:04:41;99745.63;;;13.03;68.54
67740;BME280;54536;50.090;14.420;2022-10-23T06:07:07;99744.53;;;13.05;68.24
67740;BME280;54536;50.090;14.420;2022-10-23T06:09:33;99740.31;;;13.12;68.42
67740;BME280;54536;50.090;14.420;2022-10-23T06:12:01;99731.31;;;13.05;68.71
67740;BME280;54536;50.090;14.420;2022-10-23T06:14:27;99736.41;;;13.17;68.41
67740;BME280;54536;50.090;14.420;2022-10-23T06:16:53;99737.53;;;13.14;67.80
67740;BME280;54536;50.090;14.420;2022-10-23T06:19:20;99738.75;;;13.20;67.55
67740;BME280;54536;50.090;14.420;2022-10-23T06:21:46;99734.22;;;13.12;68.52
67740;BME280;54536;50.090;14.420;2022-10-23T06:24:12;99750.59;;;13.16;68.28
67740;BME280;54536;50.090;14.420;2022-10-23T06:26:39;99761.28;;;13.14;67.78
67740;BME280;54536;50.090;14.420;2022-10-23T06:29:05;99763.50;;;13.19;68.25
67740;BME280;54536;50.090;14.420;2022-10-23T06:31:31;99771.72;;;13.16;67.79
67740;BME280;54536;50.090;14.420;2022-10-23T06:33:59;99768.66;;;13.10;68.07
67740;BME280;54536;50.090;14.420;2022-10-23T06:36:25;99766.53;;;13.24;67.40
67740;BME280;54536;50.090;14.420;2022-10-23T06:38:52;99766.13;;;13.38;66.90
67740;BME280;54536;50.090;14.420;2022-10-23T06:41:20;99774.75;;;13.30;67.05
67740;BME280;54536;50.090;14.420;2022-10-23T06:43:48;99780.41;;;13.45;66.60
67740;BME280;54536;50.090;14.420;2022-10-23T06:46:15;99777.19;;;13.51;66.18
67740;BME280;54536;50.090;14.420;2022-10-23T06:48:41;99778.47;;;13.47;67.22
67740;BME280;54536;50.090;14.420;2022-10-23T06:51:10;99778.72;;;13.54;66.90
67740;BME280;54536;50.090;14.420;2022-10-23T06:53:38;99783.06;;;13.45;66.75
67740;BME280;54536;50.090;14.420;2022-10-23T06:56:05;99790.00;;;13.46;67.08
67740;BME280;54536;50.090;14.420;2022-10-23T06:58:34;99787.25;;;13.38;66.75
67740;BME280;54536;50.090;14.420;2022-10-23T07:01:05;99789.31;;;13.44;66.76
67740;BME280;54536;50.090;14.420;2022-10-23T07:03:32;99795.28;;;13.46;66.28
67740;BME280;54536;50.090;14.420;2022-10-23T07:06:04;99798.16;;;13.53;65.92
67740;BME280;54536;50.090;14.420;2022-10-23T07:08:31;99794.16;;;13.49;66.08
67740;BME280;54536;50.090;14.420;2022-10-23T07:11:08;99791.88;;;13.64;65.90
67740;BME280;54536;50.090;14.420;2022-10-23T07:13:36;99786.47;;;13.55;66.62
67740;BME280;54536;50.090;14.420;2022-10-23T07:16:15;99788.25;;;13.65;66.41
67740;BME280;54536;50.090;14.420;2022-10-23T07:18:43;99779.03;;;13.69;65.72
67740;BME280;54536;50.090;14.420;2022-10-23T07:21:10;99776.66;;;13.75;65.51
67740;BME280;54536;50.090;14.420;2022-10-23T07:23:37;99788.34;;;13.73;65.92
67740;BME280;54536;50.090;14.420;2022-10-23T07:26:14;99779.00;;;13.78;65.44
67740;BME280;54536;50.090;14.420;2022-10-23T07:28:42;99784.75;;;13.74;65.56
67740;BME280;54536;50.090;14.420;2022-10-23T07:31:10;99776.88;;;13.82;66.15
67740;BME280;54536;50.090;14.420;2022-10-23T07:33:36;99778.69;;;13.81;66.23
67740;BME280;54536;50.090;14.420;2022-10-23T07:36:04;99765.09;;;13.76;66.27
67740;BME280;54536;50.090;14.420;2022-10-23T07:38:30;99767.00;;;13.84;65.71
67740;BME280;54536;50.090;14.420;2022-10-23T07:40:57;99774.41;;;13.80;66.17
67740;BME280;54536;50.090;14.420;2022-10-23T07:43:24;99767.63;;;13.96;65.60
67740;BME280;54536;50.090;14.420;2022-10-23T07:45:52;99764.59;;;13.91;65.51
67740;BME280;54536;50.090;14.420;2022-10-23T07:48:18;99767.03;;;14.02;65.23
67740;BME280;54536;50.090;14.420;2022-10-23T07:50:46;99765.06;;;14.04;65.46
67740;BME280;54536;50.090;14.420;2022-10-23T07:53:24;99763.94;;;14.07;65.97
67740;BME280;54536;50.090;14.420;2022-10-23T07:55:55;99765.38;;;14.01;65.69
67740;BME280;54536;50.090;14.420;2022-10-23T07:58:22;99760.09;;;14.19;65.78
67740;BME280;54536;50.090;14.420;2022-10-23T08:00:55;99767.19;;;14.18;65.89
67740;BME280;54536;50.090;14.420;2022-10-23T08:03:24;99760.94;;;14.37;65.26
67740;BME280;54536;50.090;14.420;2022-10-23T08:05:52;99761.63;;;14.39;65.33
67740;BME280;54536;50.090;14.420;2022-10-23T08:08:20;99765.41;;;14.37;65.33
67740;BME280;54536;50.090;14.420;2022-10-23T08:10:48;99770.88;;;14.53;65.81
67740;BME280;54536;50.090;14.420;2022-10-23T08:13:15;99766.84;;;14.49;65.36
67740;BME280;54536;50.090;14.420;2022-10-23T08:15:42;99763.28;;;14.58;65.02
67740;BME280;54536;50.090;14.420;2022-10-23T08:18:09;99769.13;;;14.62;64.76
67740;BME280;54536;50.090;14.420;2022-10-23T08:20:39;99766.31;;;14.63;65.54
67740;BME280;54536;50.090;14.420;2022-10-23T08:23:06;99763.97;;;14.60;64.65
67740;BME280;54536;50.090;14.420;2022-10-23T08:25:33;99765.22;;;14.74;64.66
67740;BME280;54536;50.090;14.420;2022-10-23T08:27:59;99764.16;;;14.85;64.20
67740;BME280;54536;50.090;14.420;2022-10-23T08:30:26;99764.06;;;14.94;63.85
67740;BME280;54536;50.090;14.420;2022-10-23T08:32:52;99763.13;;;15.04;63.81
67740;BME280;54536;50.090;14.420;2022-10-23T08:35:19;99756.47;;;14.99;63.94
67740;BME280;54536;50.090;14.420;2022-10-23T08:37:45;99770.13;;;15.13;65.13
67740;BME280;54536;50.090;14.420;2022-10-23T08:40:16;99755.66;;;15.33;63.36
67740;BME280;54536;50.090;14.420;2022-10-23T08:42:52;99761.50;;;15.37;63.73
67740;BME280;54536;50.090;14.420;2022-10-23T08:48:08;99756.75;;;15.49;62.05
67740;BME280;54536;50.090;14.420;2022-10-23T08:50:41;99757.94;;;15.54;61.80
67740;BME280;54536;50.090;14.420;2022-10-23T08:53:17;99747.75;;;15.67;61.65
67740;BME280;54536;50.090;14.420;2022-10-23T09:01:39;99743.81;;;15.88;61.21
67740;BME280;54536;50.090;14.420;2022-10-23T09:04:04;99738.56;;;15.96;60.93
67740;BME280;54536;50.090;14.420;2022-10-23T09:12:13;99722.34;;;16.40;59.62
67740;BME280;54536;50.090;14.420;2022-10-23T09:17:24;99710.75;;;16.33;59.81
67740;BME280;54536;50.090;14.420;2022-10-23T09:20:09;99718.03;;;16.39;60.31
67740;BME280;54536;50.090;14.420;2022-10-23T09:22:38;99722.00;;;16.43;60.32
67740;BME280;54536;50.090;14.420;2022-10-23T09:25:15;99718.88;;;16.39;60.73
67740;BME280;54536;50.090;14.420;2022-10-23T09:27:51;99719.19;;;16.53;60.70
67740;BME280;54536;50.090;14.420;2022-10-23T09:30:30;99720.03;;;16.53;60.40
67740;BME280;54536;50.090;14.420;2022-10-23T09:32:58;99721.19;;;16.59;60.37
67740;BME280;54536;50.090;14.420;2022-10-23T09:35:28;99716.53;;;16.61;60.30
67740;BME280;54536;50.090;14.420;2022-10-23T09:37:55;99725.16;;;16.71;59.85
67740;BME280;54536;50.090;14.420;2022-10-23T09:40:29;99722.53;;;16.79;59.95
67740;BME280;54536;50.090;14.420;2022-10-23T09:43:11;99735.63;;;16.89;59.70
67740;BME280;54536;50.090;14.420;2022-10-23T09:45:39;99737.13;;;16.92;59.45
67740;BME280;54536;50.090;14.420;2022-10-23T09:48:13;99742.72;;;16.97;59.73
67740;BME280;54536;50.090;14.420;2022-10-23T09:50:51;99747.88;;;17.06;59.72
67740;BME280;54536;50.090;14.420;2022-10-23T09:53:36;99742.69;;;17.13;58.86
67740;BME280;54536;50.090;14.420;2022-10-23T10:01:25;99733.84;;;17.29;57.99
67740;BME280;54536;50.090;14.420;2022-10-23T10:03:52;99731.19;;;17.29;58.69
67740;BME280;54536;50.090;14.420;2022-10-23T10:06:27;99721.53;;;17.36;58.31
67740;BME280;54536;50.090;14.420;2022-10-23T10:09:04;99717.50;;;17.48;58.31
67740;BME280;54536;50.090;14.420;2022-10-23T10:11:40;99717.63;;;17.55;58.26
67740;BME280;54536;50.090;14.420;2022-10-23T10:14:37;99716.28;;;17.59;58.11
67740;BME280;54536;50.090;14.420;2022-10-23T10:17:46;99707.97;;;17.62;57.94
67740;BME280;54536;50.090;14.420;2022-10-23T10:21:04;99708.22;;;17.75;57.42
67740;BME280;54536;50.090;14.420;2022-10-23T10:23:57;99701.88;;;17.85;57.40
67740;BME280;54536;50.090;14.420;2022-10-23T10:29:16;99697.13;;;18.03;57.33
67740;BME280;54536;50.090;14.420;2022-10-23T10:32:19;99703.38;;;18.10;56.47
67740;BME280;54536;50.090;14.420;2022-10-23T10:40:16;99690.47;;;18.45;56.65
67740;BME280;54536;50.090;14.420;2022-10-23T10:42:52;99689.47;;;18.46;56.67
67740;BME280;54536;50.090;14.420;2022-10-23T10:45:33;99684.53;;;18.58;56.21
67740;BME280;54536;50.090;14.420;2022-10-23T10:51:05;99691.91;;;18.70;54.89
67740;BME280;54536;50.090;14.420;2022-10-23T10:53:52;99679.44;;;18.86;54.43
67740;BME280;54536;50.090;14.420;2022-10-23T10:56:28;99672.00;;;18.96;54.05
67740;BME280;54536;50.090;14.420;2022-10-23T10:59:02;99662.81;;;18.99;53.88
67740;BME280;54536;50.090;14.420;2022-10-23T11:01:36;99662.38;;;19.10;53.64
67740;BME280;54536;50.090;14.420;2022-10-23T11:07:11;99659.63;;;19.03;53.82
67740;BME280;54536;50.090;14.420;2022-10-23T11:09:41;99660.78;;;19.15;53.70
67740;BME280;54536;50.090;14.420;2022-10-23T11:12:20;99655.28;;;19.17;53.62
67740;BME280;54536;50.090;14.420;2022-10-23T11:14:49;99650.94;;;19.16;53.42
67740;BME280;54536;50.090;14.420;2022-10-23T11:17:37;99647.56;;;19.07;53.58
67740;BME280;54536;50.090;14.420;2022-10-23T11:36:59;99625.06;;;18.05;56.25
67740;BME280;54536;50.090;14.420;2022-10-23T11:39:32;99622.84;;;17.93;56.65
67740;BME280;54536;50.090;14.420;2022-10-23T11:45:41;99626.56;;;17.84;57.26
67740;BME280;54536;50.090;14.420;2022-10-23T11:55:58;99611.16;;;17.80;58.01
67740;BME280;54536;50.090;14.420;2022-10-23T11:58:38;99604.19;;;17.70;58.27
67740;BME280;54536;50.090;14.420;2022-10-23T12:04:33;99600.88;;;17.45;59.17
67740;BME280;54536;50.090;14.420;2022-10-23T12:07:27;99607.66;;;17.48;59.33
67740;BME280;54536;50.090;14.420;2022-10-23T12:09:59;99599.16;;;17.52;59.49
67740;BME280;54536;50.090;14.420;2022-10-23T12:17:41;99593.91;;;17.44;60.14
67740;BME280;54536;50.090;14.420;2022-10-23T12:39:35;99543.94;;;17.40;61.10
67740;BME280;54536;50.090;14.420;2022-10-23T12:42:13;99533.06;;;17.49;60.65
67740;BME280;54536;50.090;14.420;2022-10-23T12:44:41;99535.66;;;17.58;61.16
67740;BME280;54536;50.090;14.420;2022-10-23T12:47:16;99532.06;;;17.50;61.03
67740;BME280;54536;50.090;14.420;2022-10-23T12:49:48;99533.19;;;17.56;60.85
67740;BME280;54536;50.090;14.420;2022-10-23T12:52:18;99531.16;;;17.58;60.90
67740;BME280;54536;50.090;14.420;2022-10-23T12:54:44;99523.84;;;17.60;60.81
67740;BME280;54536;50.090;14.420;2022-10-23T12:57:39;99516.72;;;17.52;61.62
67740;BME280;54536;50.090;14.420;2022-10-23T13:00:14;99516.22;;;17.57;61.40
67740;BME280;54536;50.090;14.420;2022-10-23T13:02:41;99519.25;;;17.69;61.59
67740;BME280;54536;50.090;14.420;2022-10-23T13:05:13;99512.72;;;17.80;60.81
67740;BME280;54536;50.090;14.420;2022-10-23T13:07:44;99502.25;;;17.78;61.19
67740;BME280;54536;50.090;14.420;2022-10-23T13:10:14;99499.53;;;17.86;60.86
67740;BME280;54536;50.090;14.420;2022-10-23T13:12:49;99503.84;;;17.87;61.54
67740;BME280;54536;50.090;14.420;2022-10-23T13:15:19;99498.88;;;17.84;61.36
67740;BME280;54536;50.090;14.420;2022-10-23T13:18:00;99504.91;;;17.78;61.60
67740;BME280;54536;50.090;14.420;2022-10-23T13:20:32;99497.13;;;17.76;62.06
67740;BME280;54536;50.090;14.420;2022-10-23T13:23:31;99501.66;;;17.91;61.82
67740;BME280;54536;50.090;14.420;2022-10-23T13:28:49;99499.28;;;17.96;61.94
67740;BME280;54536;50.090;14.420;2022-10-23T13:33:49;99492.13;;;17.96;62.08
67740;BME280;54536;50.090;14.420;2022-10-23T13:36:23;99483.94;;;17.98;62.84
67740;BME280;54536;50.090;14.420;2022-10-23T13:39:13;99484.03;;;18.05;62.48
67740;BME280;54536;50.090;14.420;2022-10-23T13:41:45;99472.31;;;17.99;63.28
67740;BME280;54536;50.090;14.420;2022-10-23T13:44:15;99480.28;;;17.99;63.13
67740;BME280;54536;50.090;14.420;2022-10-23T13:46:43;99488.28;;;17.99;63.50
67740;BME280;54536;50.090;14.420;2022-10-23T13:49:09;99485.78;;;17.97;63.63
67740;BME280;54536;50.090;14.420;2022-10-23T13:54:18;99488.44;;;17.97;63.68
67740;BME280;54536;50.090;14.420;2022-10-23T13:56:46;99486.44;;;17.99;63.54
67740;BME280;54536;50.090;14.420;2022-10-23T13:59:13;99494.41;;;17.99;63.92
67740;BME280;54536;50.090;14.420;2022-10-23T14:01:40;99485.41;;;18.00;63.61
67740;BME280;54536;50.090;14.420;2022-10-23T14:04:08;99476.63;;;18.00;64.13
67740;BME280;54536;50.090;14.420;2022-10-23T14:06:42;99480.47;;;17.97;64.74
67740;BME280;54536;50.090;14.420;2022-10-23T14:09:14;99481.28;;;17.98;64.60
67740;BME280;54536;50.090;14.420;2022-10-23T14:11:47;99474.78;;;18.00;64.25
67740;BME280;54536;50.090;14.420;2022-10-23T14:14:15;99462.94;;;18.03;64.67
67740;BME280;54536;50.090;14.420;2022-10-23T14:16:43;99453.50;;;18.00;64.46
67740;BME280;54536;50.090;14.420;2022-10-23T14:19:10;99445.78;;;18.06;64.93
67740;BME280;54536;50.090;14.420;2022-10-23T14:21:42;99444.22;;;18.11;64.77
67740;BME280;54536;50.090;14.420;2022-10-23T14:24:14;99448.91;;;18.09;64.70
67740;BME280;54536;50.090;14.420;2022-10-23T14:26:46;99443.59;;;18.09;65.02
67740;BME280;54536;50.090;14.420;2022-10-23T14:29:18;99443.50;;;18.02;65.00
67740;BME280;54536;50.090;14.420;2022-10-23T14:31:44;99450.75;;;18.09;66.08
67740;BME280;54536;50.090;14.420;2022-10-23T14:34:10;99446.72;;;18.13;65.48
67740;BME280;54536;50.090;14.420;2022-10-23T14:36:36;99452.75;;;18.07;65.63
67740;BME280;54536;50.090;14.420;2022-10-23T14:39:02;99459.47;;;18.02;66.10
67740;BME280;54536;50.090;14.420;2022-10-23T14:41:29;99450.91;;;18.07;65.90
67740;BME280;54536;50.090;14.420;2022-10-23T14:43:55;99448.25;;;18.07;65.81
67740;BME280;54536;50.090;14.420;2022-10-23T14:46:23;99448.00;;;18.02;66.29
67740;BME280;54536;50.090;14.420;2022-10-23T14:48:51;99439.25;;;18.08;66.41
67740;BME280;54536;50.090;14.420;2022-10-23T14:51:27;99444.13;;;18.05;66.22
67740;BME280;54536;50.090;14.420;2022-10-23T14:54:03;99447.63;;;18.05;66.28
67740;BME280;54536;50.090;14.420;2022-10-23T14:56:32;99428.72;;;18.00;66.14
67740;BME280;54536;50.090;14.420;2022-10-23T14:58:59;99433.69;;;18.03;66.56
67740;BME280;54536;50.090;14.420;2022-10-23T15:01:35;99422.38;;;18.01;66.16
67740;BME280;54536;50.090;14.420;2022-10-23T15:04:03;99416.81;;;17.96;66.37
67740;BME280;54536;50.090;14.420;2022-10-23T15:06:31;99415.63;;;17.98;66.62
67740;BME280;54536;50.090;14.420;2022-10-23T15:08:59;99407.16;;;17.95;66.77
67740;BME280;54536;50.090;14.420;2022-10-23T15:11:25;99411.13;;;17.99;66.65
67740;BME280;54536;50.090;14.420;2022-10-23T15:13:53;99410.66;;;17.95;66.42
67740;BME280;54536;50.090;14.420;2022-10-23T15:16:21;99405.69;;;17.92;66.75
67740;BME280;54536;50.090;14.420;2022-10-23T15:18:50;99407.34;;;17.93;66.98
67740;BME280;54536;50.090;14.420;2022-10-23T15:21:17;99400.38;;;17.92;67.15
67740;BME280;54536;50.090;14.420;2022-10-23T15:23:45;99406.69;;;17.91;66.96
67740;BME280;54536;50.090;14.420;2022-10-23T15:26:16;99411.75;;;17.86;67.65